New Washington, Ohio
Current Conditions -  °F | °C
As of 12:52 AM on Saturday 25 Oct 2014 (Local Time) from KMFD Reporting Station
Broken Clouds Broken Clouds  
Wind Chill: 46°   Ceiling: 4000
Heat Index: 48°   Visibility: 10mi
Dew Point: 39°   Wind: 5mph
Humidity: 71%   Direction: 220°SW
Pressure: 30"   Gusts: NA
Location:  40.96°N, 82.85°W
Report Text: KMFD 250452Z 22004KT 10SM BKN040 09/04 A3000 RMK AO2 SLP161 T00890039 401720017
Loading
Personal Weather Stations






























Interactive Weather Map
Tropical Storm Tracking
New forecast layout! Learn more

10-Day Weather Forecast

Advertisements
Track Severe Weather on mobile